Time;durP1;ratioP1;P1;durP2;ratioP2;P2;SDS_P1;SDS_P2;PMS_P1;PMS_P2;Temp;Humidity;BMP_temperature;BMP_pressure;BME280_temperature;BME280_humidity;BME280_pressure;Samples;Min_cycle;Max_cycle;Signal;HPM_P1;HPM_P2
2023/03/01 00:01:07;;;;;;;11.17;6.00;;;0.00;99.90;;;;;;5093301;28;20443;-48
2023/03/01 00:03:33;;;;;;;8.97;6.03;;;-0.10;99.90;;;;;;5093133;28;20752;-49
2023/03/01 00:05:59;;;;;;;9.87;6.30;;;-0.10;99.90;;;;;;5093095;28;20443;-48
2023/03/01 00:08:26;;;;;;;11.63;6.30;;;-0.10;99.90;;;;;;5093218;28;20430;-48
2023/03/01 00:11:07;;;;;;;10.37;6.60;;;-0.10;99.90;;;;;;5093262;28;20785;-49
2023/03/01 00:13:34;;;;;;;20.33;7.10;;;-0.10;99.90;;;;;;5093094;28;20403;-49
2023/03/01 00:16:03;;;;;;;10.17;7.00;;;-0.10;99.90;;;;;;5092996;28;20487;-49
2023/03/01 00:18:29;;;;;;;9.63;6.50;;;-0.10;99.90;;;;;;5093206;28;20418;-49
2023/03/01 00:20:55;;;;;;;11.00;6.97;;;-0.10;99.90;;;;;;5092894;28;20904;-48
2023/03/01 00:23:22;;;;;;;13.30;6.80;;;-0.20;99.90;;;;;;5092970;28;20181;-49
2023/03/01 00:25:47;;;;;;;10.90;6.70;;;-0.20;99.90;;;;;;5091717;28;20288;-49
2023/03/01 00:28:13;;;;;;;12.80;6.67;;;-0.30;99.90;;;;;;5092880;28;20268;-49
2023/03/01 00:30:39;;;;;;;11.13;6.80;;;-0.30;99.90;;;;;;5092752;28;20217;-49
2023/03/01 00:33:04;;;;;;;14.37;6.83;;;-0.40;99.90;;;;;;5092816;28;20182;-49
2023/03/01 00:35:32;;;;;;;11.47;6.60;;;-0.50;99.90;;;;;;5092826;28;20181;-49
2023/03/01 00:37:58;;;;;;;11.93;7.13;;;-0.50;99.90;;;;;;5092869;28;20207;-49
2023/03/01 00:40:25;;;;;;;9.87;6.80;;;-0.50;99.90;;;;;;5096440;28;20447;-48
2023/03/01 00:42:51;;;;;;;9.87;7.20;;;-0.60;99.90;;;;;;5096665;28;20638;-48
2023/03/01 00:45:17;;;;;;;13.60;8.03;;;-0.60;99.90;;;;;;5096275;28;20508;-49
2023/03/01 00:47:43;;;;;;;14.00;7.60;;;-0.70;99.90;;;;;;5096302;28;20182;-48
2023/03/01 00:50:10;;;;;;;11.23;7.20;;;-0.70;99.90;;;;;;5096295;28;20214;-49
2023/03/01 00:52:35;;;;;;;8.77;6.77;;;-0.70;99.90;;;;;;5096092;28;20269;-48
2023/03/01 00:55:01;;;;;;;11.73;7.77;;;-0.70;99.90;;;;;;5096396;28;20545;-49
2023/03/01 00:57:27;;;;;;;13.87;7.63;;;-0.70;99.90;;;;;;5096116;28;20641;-49
2023/03/01 00:59:52;;;;;;;11.87;7.27;;;-0.80;99.90;;;;;;5096063;28;20203;-48
2023/03/01 01:02:21;;;;;;;11.20;7.40;;;-0.80;99.90;;;;;;5096352;28;20167;-48
2023/03/01 01:04:47;;;;;;;11.67;7.83;;;-0.80;99.90;;;;;;5096309;28;20192;-47
2023/03/01 01:07:13;;;;;;;12.53;8.07;;;-0.80;99.90;;;;;;5096008;28;20415;-48
2023/03/01 01:09:39;;;;;;;14.97;7.83;;;-0.90;99.90;;;;;;5095824;28;20250;-47
2023/03/01 01:12:05;;;;;;;13.47;7.70;;;-0.90;99.90;;;;;;5095937;28;20450;-49
2023/03/01 01:14:31;;;;;;;13.60;7.97;;;-0.90;99.90;;;;;;5095873;28;20347;-48
2023/03/01 01:16:56;;;;;;;15.50;8.67;;;-1.00;99.90;;;;;;5095765;28;20502;-48
2023/03/01 01:19:23;;;;;;;13.03;7.80;;;-1.00;99.90;;;;;;5095665;28;20184;-49
2023/03/01 01:21:49;;;;;;;13.33;7.87;;;-1.00;99.90;;;;;;5095768;28;20190;-48
2023/03/01 01:24:15;;;;;;;12.53;7.80;;;-1.00;99.90;;;;;;5095958;28;20800;-48
2023/03/01 01:26:41;;;;;;;11.77;7.63;;;-1.10;99.90;;;;;;5095703;28;20185;-48
2023/03/01 01:29:08;;;;;;;13.00;8.03;;;-1.10;99.90;;;;;;5095725;28;20786;-48
2023/03/01 01:31:35;;;;;;;12.03;7.80;;;-1.10;99.90;;;;;;5095712;28;20431;-48
2023/03/01 01:34:03;;;;;;;11.90;7.67;;;-1.20;99.90;;;;;;5095559;28;20411;-48
2023/03/01 01:36:29;;;;;;;11.67;7.97;;;-1.20;99.90;;;;;;5095414;28;20416;-48
2023/03/01 01:38:55;;;;;;;10.93;7.00;;;-1.20;99.90;;;;;;5095370;28;20537;-48
2023/03/01 01:41:22;;;;;;;12.77;8.30;;;-1.30;99.90;;;;;;5095276;28;20443;-48
2023/03/01 01:44:10;;;;;;;15.33;8.17;;;-1.30;99.90;;;;;;5097203;28;20417;-49
2023/03/01 01:46:52;;;;;;;15.37;8.03;;;-1.30;99.90;;;;;;5095128;28;20792;-47
2023/03/01 01:49:30;;;;;;;11.77;7.97;;;-1.40;99.90;;;;;;5094980;28;20506;-49
2023/03/01 01:52:01;;;;;;;12.17;7.73;;;-1.40;99.90;;;;;;5094647;28;20406;-48
2023/03/01 01:54:43;;;;;;;13.40;8.00;;;-1.40;99.90;;;;;;5095346;28;20433;-49
2023/03/01 01:57:18;;;;;;;14.37;8.27;;;-1.40;99.90;;;;;;5095336;28;20404;-50
2023/03/01 01:59:48;;;;;;;13.20;8.07;;;-1.40;99.90;;;;;;5094874;28;20433;-48
2023/03/01 02:02:14;;;;;;;11.17;8.23;;;-1.50;99.90;;;;;;5095002;28;20797;-49
2023/03/01 02:04:40;;;;;;;11.97;7.67;;;-1.50;99.90;;;;;;5094872;28;20440;-49
2023/03/01 02:07:19;;;;;;;20.50;8.17;;;-1.50;99.90;;;;;;5093566;28;20724;-48
2023/03/01 02:09:48;;;;;;;14.27;9.00;;;-1.60;99.90;;;;;;5094876;28;20217;-48
2023/03/01 02:12:16;;;;;;;21.03;9.17;;;-1.60;99.90;;;;;;5094570;28;20516;-49
2023/03/01 02:14:42;;;;;;;13.43;8.13;;;-1.60;99.90;;;;;;5094926;28;20821;-48
2023/03/01 02:17:09;;;;;;;13.50;7.67;;;-1.60;99.90;;;;;;5094829;28;20418;-49
2023/03/01 02:19:59;;;;;;;14.60;8.13;;;-1.70;99.90;;;;;;5094807;28;20167;-49
2023/03/01 02:22:29;;;;;;;18.43;8.33;;;-1.70;99.90;;;;;;5094515;28;20406;-48
2023/03/01 02:25:07;;;;;;;21.73;9.43;;;-1.70;99.90;;;;;;5094724;28;20813;-49
2023/03/01 02:28:15;;;;;;;14.20;9.47;;;-1.70;99.90;;;;;;5094842;28;20405;-48
2023/03/01 02:31:41;;;;;;;15.07;8.40;;;-1.60;99.90;;;;;;5094222;28;20551;-48
2023/03/01 02:33:32;;;;;;;13.30;8.53;;;-1.70;99.90;;;;;;5094274;28;20431;-48
2023/03/01 02:36:00;;;;;;;14.67;8.63;;;-1.70;99.90;;;;;;5094546;28;20402;-48
2023/03/01 02:38:26;;;;;;;17.23;8.90;;;-1.70;99.90;;;;;;5094225;28;20406;-48
2023/03/01 02:40:53;;;;;;;13.23;8.93;;;-1.70;99.90;;;;;;5094047;28;20526;-48
2023/03/01 02:43:22;;;;;;;14.17;8.70;;;-1.80;99.90;;;;;;5094378;28;20184;-48
2023/03/01 02:45:50;;;;;;;11.67;8.40;;;-1.80;99.90;;;;;;5094293;28;20417;-48
2023/03/01 02:48:16;;;;;;;19.33;8.67;;;-1.80;99.90;;;;;;5094308;28;20442;-48
2023/03/01 02:50:56;;;;;;;17.50;9.80;;;-1.80;99.90;;;;;;5093897;28;20500;-49
2023/03/01 02:53:49;;;;;;;14.87;8.70;;;-1.90;99.90;;;;;;5093998;28;20501;-47
2023/03/01 02:56:15;;;;;;;12.40;8.77;;;-1.90;99.90;;;;;;5094198;28;20408;-47
2023/03/01 02:58:44;;;;;;;14.77;9.43;;;-1.90;99.90;;;;;;5093934;28;20435;-47
2023/03/01 03:01:10;;;;;;;18.23;9.57;;;-1.90;99.90;;;;;;5093746;28;20431;-47
2023/03/01 03:03:36;;;;;;;15.40;9.67;;;-1.90;99.90;;;;;;5094054;28;20409;-48
2023/03/01 03:06:01;;;;;;;19.20;9.60;;;-1.90;99.90;;;;;;5094044;28;20194;-49
2023/03/01 03:08:27;;;;;;;17.97;9.57;;;-1.90;99.90;;;;;;5093753;28;20205;-46
2023/03/01 03:10:52;;;;;;;18.13;9.33;;;-2.00;99.90;;;;;;5094083;28;20549;-48
2023/03/01 03:13:18;;;;;;;13.53;9.40;;;-2.00;99.90;;;;;;5093936;28;20191;-48
2023/03/01 03:15:44;;;;;;;14.10;9.10;;;-2.00;99.90;;;;;;5093922;28;20187;-49
2023/03/01 03:18:14;;;;;;;15.97;9.13;;;-2.00;99.90;;;;;;5093721;28;20776;-48
2023/03/01 03:20:41;;;;;;;13.43;9.07;;;-2.00;99.90;;;;;;5095755;28;20688;-48
2023/03/01 03:23:07;;;;;;;20.50;9.60;;;-2.10;99.90;;;;;;5093760;28;20504;-48
2023/03/01 03:25:37;;;;;;;17.53;9.33;;;-2.10;99.90;;;;;;5093564;28;20445;-49
2023/03/01 03:28:09;;;;;;;15.53;8.93;;;-2.10;99.90;;;;;;5093482;28;20163;-48
2023/03/01 03:30:38;;;;;;;15.40;9.80;;;-2.10;99.90;;;;;;5093612;28;20468;-48
2023/03/01 03:33:05;;;;;;;14.57;9.47;;;-2.20;99.90;;;;;;5093451;28;20421;-49
2023/03/01 03:35:34;;;;;;;19.30;9.33;;;-2.20;99.90;;;;;;5093469;28;20415;-48
2023/03/01 03:38:06;;;;;;;18.47;8.57;;;-2.20;99.90;;;;;;5093399;28;20406;-48
2023/03/01 03:40:39;;;;;;;16.30;9.23;;;-2.20;99.90;;;;;;5093636;28;20437;-49
2023/03/01 03:43:23;;;;;;;15.87;9.80;;;-2.20;99.90;;;;;;5093639;28;20409;-47
2023/03/01 03:45:50;;;;;;;16.63;9.57;;;-2.20;99.90;;;;;;5093399;28;20487;-48
2023/03/01 03:48:16;;;;;;;25.93;9.53;;;-2.20;99.90;;;;;;5093248;28;20806;-48
2023/03/01 03:50:49;;;;;;;17.03;9.70;;;-2.30;99.90;;;;;;5093305;28;20513;-48
2023/03/01 03:53:14;;;;;;;16.07;10.00;;;-2.30;99.90;;;;;;5093285;28;20841;-48
2023/03/01 03:55:40;;;;;;;19.60;10.10;;;-2.30;99.90;;;;;;5093551;28;20492;-48
2023/03/01 03:58:10;;;;;;;15.40;9.63;;;-2.30;99.90;;;;;;5093458;28;20254;-48
2023/03/01 04:00:40;;;;;;;20.13;10.60;;;-2.30;99.90;;;;;;5093315;28;20662;-48
2023/03/01 04:03:07;;;;;;;15.00;10.17;;;-2.40;99.90;;;;;;5093249;28;20896;-48
2023/03/01 04:05:33;;;;;;;16.60;10.43;;;-2.40;99.90;;;;;;5093187;28;20505;-48
2023/03/01 04:08:02;;;;;;;17.57;9.43;;;-2.40;99.90;;;;;;5093106;28;20421;-47
2023/03/01 04:10:30;;;;;;;15.53;10.70;;;-2.30;99.90;;;;;;5093229;28;20963;-48
2023/03/01 04:12:56;;;;;;;14.07;9.53;;;-2.30;99.90;;;;;;5093212;28;20437;-48
2023/03/01 04:15:23;;;;;;;16.67;10.07;;;-2.40;99.90;;;;;;5096982;28;20417;-48
2023/03/01 04:17:51;;;;;;;17.20;10.23;;;-2.40;99.90;;;;;;5096999;28;20869;-49
2023/03/01 04:20:26;;;;;;;15.60;9.67;;;-2.40;99.90;;;;;;5097097;28;20449;-47
2023/03/01 04:23:00;;;;;;;14.63;9.80;;;-2.40;99.90;;;;;;5097090;28;20926;-48
2023/03/01 04:25:26;;;;;;;15.63;10.60;;;-2.50;99.90;;;;;;5097080;28;20408;-47
2023/03/01 04:27:51;;;;;;;15.73;9.23;;;-2.50;99.90;;;;;;5096985;28;20788;-47
2023/03/01 04:30:17;;;;;;;17.00;9.90;;;-2.50;99.90;;;;;;5096535;28;20716;-47
2023/03/01 04:32:43;;;;;;;13.97;10.10;;;-2.50;99.90;;;;;;5097176;28;20203;-47
2023/03/01 04:35:09;;;;;;;14.97;9.83;;;-2.50;99.90;;;;;;5097055;28;20189;-46
2023/03/01 04:37:34;;;;;;;17.33;10.03;;;-2.50;99.90;;;;;;5096567;28;20183;-47
2023/03/01 04:40:12;;;;;;;12.40;9.57;;;-2.50;99.90;;;;;;5096646;28;20202;-48
2023/03/01 04:42:37;;;;;;;14.83;9.70;;;-2.60;99.90;;;;;;5096780;28;20175;-47
2023/03/01 04:45:12;;;;;;;22.77;10.33;;;-2.60;99.90;;;;;;5096525;28;20412;-46
2023/03/01 04:47:42;;;;;;;15.47;9.50;;;-2.60;99.90;;;;;;5096744;28;20514;-48
2023/03/01 04:50:09;;;;;;;14.23;10.10;;;-2.60;99.90;;;;;;5096252;28;20559;-48
2023/03/01 04:52:35;;;;;;;16.57;10.43;;;-2.70;99.90;;;;;;5096309;28;20760;-48
2023/03/01 04:55:00;;;;;;;16.33;10.60;;;-2.70;99.90;;;;;;5098720;28;20405;-48
2023/03/01 04:57:26;;;;;;;15.93;9.93;;;-2.70;99.90;;;;;;5096451;28;20456;-47
2023/03/01 04:59:52;;;;;;;14.87;9.83;;;-2.70;99.90;;;;;;5096052;28;20202;-47
2023/03/01 05:02:17;;;;;;;15.13;10.50;;;-2.80;99.90;;;;;;5096140;28;20179;-47
2023/03/01 05:04:43;;;;;;;15.23;9.87;;;-2.80;99.90;;;;;;5096028;28;20589;-46
2023/03/01 05:07:08;;;;;;;15.03;9.17;;;-2.80;99.90;;;;;;5095933;28;20175;-47
2023/03/01 05:09:34;;;;;;;15.63;10.00;;;-2.90;99.90;;;;;;5095831;28;20251;-47
2023/03/01 05:12:00;;;;;;;15.30;9.57;;;-3.00;99.90;;;;;;5096311;28;20217;-47
2023/03/01 05:14:25;;;;;;;16.37;10.07;;;-3.00;99.90;;;;;;5095866;28;20206;-47
2023/03/01 05:16:51;;;;;;;17.13;9.57;;;-3.10;99.90;;;;;;5095916;28;20521;-47
2023/03/01 05:19:22;;;;;;;13.80;10.13;;;-3.10;99.90;;;;;;5095854;28;20690;-48
2023/03/01 05:22:03;;;;;;;19.10;10.27;;;-3.10;99.90;;;;;;5095735;28;20195;-47
2023/03/01 05:24:31;;;;;;;14.23;9.63;;;-3.20;99.90;;;;;;5095697;28;20445;-48
2023/03/01 05:26:57;;;;;;;18.10;9.60;;;-3.20;99.90;;;;;;5095621;28;20425;-48
2023/03/01 05:29:26;;;;;;;13.30;8.93;;;-3.20;99.90;;;;;;5095505;28;20460;-49
2023/03/01 05:31:57;;;;;;;12.70;8.97;;;-3.30;99.90;;;;;;5094263;28;20553;-48
2023/03/01 05:34:28;;;;;;;16.87;9.93;;;-3.30;99.90;;;;;;5095761;28;20382;-48
2023/03/01 05:36:54;;;;;;;24.90;11.53;;;-3.30;99.90;;;;;;5095815;28;20409;-47
2023/03/01 05:39:23;;;;;;;17.37;11.00;;;-3.30;99.90;;;;;;5095621;28;20401;-48
2023/03/01 05:41:53;;;;;;;20.33;11.60;;;-3.30;99.90;;;;;;5095351;28;20412;-47
2023/03/01 05:44:19;;;;;;;25.90;10.33;;;-3.30;99.90;;;;;;5095669;28;20413;-49
2023/03/01 05:46:44;;;;;;;18.43;9.93;;;-3.30;99.90;;;;;;5095673;28;20458;-49
2023/03/01 05:49:10;;;;;;;17.47;9.97;;;-3.40;99.90;;;;;;5095476;28;20654;-47
2023/03/01 05:51:36;;;;;;;19.13;10.40;;;-3.40;99.90;;;;;;5095262;28;20202;-47
2023/03/01 05:54:02;;;;;;;18.43;10.60;;;-3.40;99.90;;;;;;5095080;28;20454;-49
2023/03/01 05:56:27;;;;;;;17.83;10.80;;;-3.40;99.90;;;;;;5094991;28;20182;-49
2023/03/01 05:58:53;;;;;;;17.77;10.67;;;-3.40;99.90;;;;;;5095037;28;20245;-47
2023/03/01 06:01:18;;;;;;;19.60;11.03;;;-3.40;99.90;;;;;;5095140;28;20531;-48
2023/03/01 06:03:44;;;;;;;21.23;10.63;;;-3.40;99.90;;;;;;5094960;28;20565;-48
2023/03/01 06:06:09;;;;;;;19.07;10.87;;;-3.40;99.90;;;;;;5095051;28;20695;-47
2023/03/01 06:08:35;;;;;;;17.60;10.77;;;-3.40;99.90;;;;;;5094998;28;20185;-47
2023/03/01 06:11:01;;;;;;;18.03;11.83;;;-3.40;99.90;;;;;;5094518;28;20198;-46
2023/03/01 06:13:26;;;;;;;17.23;10.70;;;-3.40;99.90;;;;;;5094967;28;20167;-48
2023/03/01 06:15:52;;;;;;;16.83;9.87;;;-3.30;99.90;;;;;;5094603;28;20534;-47
2023/03/01 06:18:17;;;;;;;20.77;11.57;;;-3.30;99.90;;;;;;5094823;28;20592;-47
2023/03/01 06:20:43;;;;;;;18.00;11.03;;;-3.30;99.90;;;;;;5094486;28;20199;-48
2023/03/01 06:23:09;;;;;;;20.10;11.07;;;-3.30;99.90;;;;;;5094573;28;20601;-47
2023/03/01 06:25:34;;;;;;;19.70;10.73;;;-3.30;99.90;;;;;;5094696;28;20197;-47
2023/03/01 06:28:00;;;;;;;18.07;11.17;;;-3.30;99.90;;;;;;5094424;28;20561;-47
2023/03/01 06:30:26;;;;;;;20.77;11.63;;;-3.30;99.90;;;;;;5094123;28;20214;-47
2023/03/01 06:32:52;;;;;;;22.03;11.30;;;-3.20;99.90;;;;;;5094523;28;20183;-47
2023/03/01 06:35:19;;;;;;;23.43;11.60;;;-3.20;99.90;;;;;;5094504;28;20202;-47
2023/03/01 06:37:46;;;;;;;21.63;11.37;;;-3.10;99.90;;;;;;5094083;28;20431;-47
2023/03/01 06:40:13;;;;;;;19.63;11.77;;;-3.10;99.90;;;;;;5094430;28;20863;-47
2023/03/01 06:42:40;;;;;;;20.73;11.63;;;-3.10;99.90;;;;;;5095208;28;20416;-47
2023/03/01 06:45:07;;;;;;;17.53;10.97;;;-3.10;99.90;;;;;;5094399;28;20417;-47
2023/03/01 06:47:34;;;;;;;21.97;11.87;;;-3.00;99.90;;;;;;5093935;28;20421;-47
2023/03/01 06:50:00;;;;;;;24.00;11.83;;;-3.00;99.90;;;;;;5094129;28;20460;-47
2023/03/01 06:52:26;;;;;;;21.57;12.07;;;-2.90;99.90;;;;;;5094245;28;20421;-47
2023/03/01 06:54:51;;;;;;;24.50;12.93;;;-2.90;99.90;;;;;;5094202;28;20787;-48
2023/03/01 06:57:17;;;;;;;21.27;12.90;;;-2.80;99.90;;;;;;5093946;28;20742;-47
2023/03/01 06:59:42;;;;;;;21.67;12.73;;;-2.80;99.90;;;;;;5094088;28;20761;-47
2023/03/01 07:02:13;;;;;;;20.23;12.00;;;-2.80;99.90;;;;;;5094204;28;20689;-48
2023/03/01 07:04:38;;;;;;;19.90;12.73;;;-2.70;99.90;;;;;;5094132;28;20188;-46
2023/03/01 07:07:04;;;;;;;25.20;13.10;;;-2.70;99.90;;;;;;5094071;28;20513;-47
2023/03/01 07:09:30;;;;;;;19.60;12.17;;;-2.60;99.90;;;;;;5093861;28;20237;-47
2023/03/01 07:11:56;;;;;;;19.20;11.70;;;-2.60;99.90;;;;;;5093909;28;20452;-47
2023/03/01 07:14:24;;;;;;;18.90;12.23;;;-2.50;99.90;;;;;;5093914;28;20209;-47
2023/03/01 07:16:50;;;;;;;25.27;12.63;;;-2.50;99.90;;;;;;5093652;28;20935;-47
2023/03/01 07:19:15;;;;;;;19.33;12.67;;;-2.40;99.90;;;;;;5093892;28;20412;-48
2023/03/01 07:21:41;;;;;;;23.47;13.10;;;-2.40;99.90;;;;;;5093524;28;20240;-48
2023/03/01 07:24:07;;;;;;;20.40;13.60;;;-2.30;99.90;;;;;;5093819;28;20182;-47
2023/03/01 07:26:33;;;;;;;25.23;13.07;;;-2.30;99.90;;;;;;5093775;28;20189;-47
2023/03/01 07:29:00;;;;;;;25.30;13.60;;;-2.20;99.90;;;;;;5093975;28;20747;-47
2023/03/01 07:31:27;;;;;;;26.43;13.50;;;-2.20;99.90;;;;;;5093335;28;20193;-48
2023/03/01 07:33:54;;;;;;;23.00;13.23;;;-2.10;99.90;;;;;;5093335;28;20408;-47
2023/03/01 07:36:19;;;;;;;26.60;13.83;;;-2.10;99.90;;;;;;5093689;28;20421;-48
2023/03/01 07:38:45;;;;;;;22.57;13.00;;;-2.10;99.90;;;;;;5093913;28;20427;-46
2023/03/01 07:41:11;;;;;;;21.10;13.70;;;-2.00;99.90;;;;;;5093400;28;20270;-47
2023/03/01 07:43:36;;;;;;;20.53;13.40;;;-2.00;99.90;;;;;;5093645;28;20516;-48
2023/03/01 07:46:03;;;;;;;22.67;13.40;;;-1.90;99.90;;;;;;5093356;28;20174;-48
2023/03/01 07:48:29;;;;;;;22.27;13.80;;;-1.80;99.90;;;;;;5096117;28;20175;-48
2023/03/01 07:50:59;;;;;;;24.77;14.57;;;-1.80;99.90;;;;;;5097565;28;20458;-47
2023/03/01 07:53:24;;;;;;;19.97;13.80;;;-1.70;99.90;;;;;;5097346;28;20416;-47
2023/03/01 07:56:04;;;;;;;25.90;13.53;;;-1.60;99.90;;;;;;5097582;28;20466;-47
2023/03/01 07:58:29;;;;;;;24.60;14.03;;;-1.50;99.90;;;;;;5097572;28;20565;-47
2023/03/01 08:00:55;;;;;;;27.67;14.00;;;-1.40;99.90;;;;;;5095924;28;20489;-47
2023/03/01 08:03:20;;;;;;;24.00;14.00;;;-1.40;99.90;;;;;;5095945;28;20206;-48
2023/03/01 08:05:46;;;;;;;23.80;14.30;;;-1.30;99.90;;;;;;5097453;28;20184;-47
2023/03/01 08:08:11;;;;;;;25.80;13.30;;;-1.20;99.90;;;;;;5097103;28;20647;-48
2023/03/01 08:10:37;;;;;;;21.60;13.13;;;-1.10;99.90;;;;;;5096950;28;20788;-47
2023/03/01 08:13:02;;;;;;;23.80;14.70;;;-1.10;99.90;;;;;;5096941;28;20723;-48
2023/03/01 08:15:28;;;;;;;19.80;11.57;;;-1.00;99.90;;;;;;5096932;28;20669;-47
2023/03/01 08:17:53;;;;;;;22.40;14.43;;;-0.90;99.90;;;;;;5097216;28;20254;-47
2023/03/01 08:20:19;;;;;;;26.90;12.27;;;-0.70;99.90;;;;;;5097063;28;20686;-44
2023/03/01 08:22:45;;;;;;;20.80;14.10;;;-0.70;99.90;;;;;;5096826;28;20547;-48
2023/03/01 08:25:10;;;;;;;25.37;14.57;;;-0.60;99.90;;;;;;5097080;28;20185;-46
2023/03/01 08:27:36;;;;;;;22.97;13.70;;;-0.50;99.90;;;;;;5097560;28;20179;-46
2023/03/01 08:30:01;;;;;;;20.23;13.43;;;-0.50;99.90;;;;;;5096778;28;20216;-47
2023/03/01 08:32:27;;;;;;;22.73;15.83;;;-0.40;99.90;;;;;;5096653;28;20179;-47
2023/03/01 08:34:52;;;;;;;24.23;15.13;;;-0.30;99.90;;;;;;5096640;28;20163;-47
2023/03/01 08:37:18;;;;;;;22.57;13.07;;;-0.20;99.90;;;;;;5096773;28;20241;-47
2023/03/01 08:39:43;;;;;;;25.73;14.60;;;-0.20;99.90;;;;;;5096697;28;20198;-47
2023/03/01 08:42:09;;;;;;;23.40;13.37;;;-0.10;99.90;;;;;;5096524;28;20254;-48
2023/03/01 08:44:34;;;;;;;22.97;13.20;;;0.00;99.90;;;;;;5096636;28;20206;-48
2023/03/01 08:47:02;;;;;;;22.30;14.43;;;0.00;99.90;;;;;;5096638;28;20179;-47
2023/03/01 08:49:28;;;;;;;28.63;15.00;;;0.10;99.90;;;;;;5094903;28;20658;-47
2023/03/01 08:51:54;;;;;;;22.17;12.37;;;0.20;99.90;;;;;;5096270;28;20437;-48
2023/03/01 08:54:21;;;;;;;17.97;11.90;;;0.30;99.90;;;;;;5096615;28;20586;-46
2023/03/01 08:56:48;;;;;;;18.60;12.43;;;0.40;99.90;;;;;;5096385;28;20462;-47
2023/03/01 08:59:15;;;;;;;24.13;13.70;;;0.40;99.90;;;;;;5096052;28;20450;-47
2023/03/01 09:01:43;;;;;;;24.20;13.17;;;0.50;99.90;;;;;;5096257;28;20435;-47
2023/03/01 09:04:09;;;;;;;20.50;13.20;;;0.50;99.90;;;;;;5096137;28;20407;-47
2023/03/01 09:06:35;;;;;;;16.97;11.40;;;0.60;99.90;;;;;;5096458;28;20467;-47
2023/03/01 09:09:02;;;;;;;24.53;13.57;;;0.70;99.90;;;;;;5096064;28;20434;-48
2023/03/01 09:11:28;;;;;;;18.03;12.33;;;0.80;99.90;;;;;;5096002;28;20215;-48
2023/03/01 09:13:54;;;;;;;19.33;12.87;;;0.80;99.90;;;;;;5095841;28;20907;-49
2023/03/01 09:16:21;;;;;;;20.90;12.60;;;0.90;99.90;;;;;;5095958;28;20397;-49
2023/03/01 09:18:54;;;;;;;22.50;13.03;;;1.00;99.90;;;;;;5096102;28;20185;-48
2023/03/01 09:21:22;;;;;;;22.40;12.63;;;1.00;99.90;;;;;;5096048;28;20431;-48
2023/03/01 09:23:49;;;;;;;19.97;11.43;;;1.10;99.90;;;;;;5095838;28;20220;-47
2023/03/01 09:26:21;;;;;;;17.03;12.17;;;1.20;99.90;;;;;;5095974;28;20419;-48
2023/03/01 09:28:48;;;;;;;21.50;13.13;;;1.30;99.90;;;;;;5095843;28;20404;-47
2023/03/01 09:31:14;;;;;;;19.00;11.20;;;1.30;99.90;;;;;;5095531;28;20190;-48
2023/03/01 09:33:42;;;;;;;19.03;11.33;;;1.40;99.90;;;;;;5095391;28;20210;-48
2023/03/01 09:36:14;;;;;;;20.80;12.67;;;1.40;99.90;;;;;;5095798;28;20207;-48
2023/03/01 09:38:39;;;;;;;18.73;11.90;;;1.50;99.90;;;;;;5095736;28;20159;-48
2023/03/01 09:41:43;;;;;;;22.63;13.60;;;1.60;99.90;;;;;;5095563;28;20562;-49
2023/03/01 09:44:26;;;;;;;21.17;11.57;;;1.70;99.90;;;;;;5095570;28;20215;-47
2023/03/01 09:46:52;;;;;;;24.63;13.23;;;1.70;99.90;;;;;;5095302;28;20709;-48
2023/03/01 09:49:22;;;;;;;17.00;11.57;;;1.80;99.90;;;;;;5095371;28;20289;-48
2023/03/01 09:52:01;;;;;;;18.47;12.57;;;1.90;99.90;;;;;;5095364;28;20167;-48
2023/03/01 09:54:27;;;;;;;22.10;12.63;;;2.10;99.90;;;;;;5095441;28;20159;-49
2023/03/01 09:57:19;;;;;;;20.43;12.57;;;2.30;99.90;;;;;;5095265;28;20224;-49
2023/03/01 09:59:45;;;;;;;19.93;12.23;;;2.50;99.90;;;;;;5095048;28;20627;-48
2023/03/01 10:02:26;;;;;;;16.10;11.60;;;2.50;99.90;;;;;;5095211;28;20183;-48
2023/03/01 10:04:57;;;;;;;18.53;13.17;;;2.60;99.90;;;;;;5093668;28;20541;-48
2023/03/01 10:07:42;;;;;;;21.33;12.63;;;2.80;99.90;;;;;;5094994;28;20191;-49
2023/03/01 10:10:14;;;;;;;23.43;11.50;;;2.70;99.90;;;;;;5094836;28;20256;-49
2023/03/01 10:12:42;;;;;;;22.73;11.87;;;2.80;99.90;;;;;;5093937;28;20203;-48
2023/03/01 10:15:38;;;;;;;25.27;12.90;;;3.00;99.90;;;;;;5094664;28;20171;-48
2023/03/01 10:18:19;;;;;;;18.60;12.07;;;3.10;99.90;;;;;;5094578;28;20176;-49
2023/03/01 10:20:58;;;;;;;17.70;11.77;;;3.10;99.90;;;;;;5094554;28;20206;-49
2023/03/01 10:23:25;;;;;;;17.73;11.73;;;3.20;99.90;;;;;;5094604;28;20168;-49
2023/03/01 10:26:05;;;;;;;20.80;11.83;;;3.20;99.90;;;;;;5094510;28;20644;-50
2023/03/01 10:28:55;;;;;;;20.00;12.00;;;3.30;99.90;;;;;;5094753;28;20172;-49
2023/03/01 10:31:28;;;;;;;16.57;11.67;;;3.50;99.90;;;;;;5094520;28;20207;-50
2023/03/01 10:33:56;;;;;;;17.17;11.03;;;3.50;99.90;;;;;;5094648;28;20162;-48
2023/03/01 10:36:23;;;;;;;20.50;13.10;;;3.60;99.90;;;;;;5094520;28;20189;-49
2023/03/01 10:38:53;;;;;;;22.77;11.50;;;3.70;99.90;;;;;;5094536;28;20178;-49
2023/03/01 10:41:23;;;;;;;18.20;11.83;;;3.80;99.90;;;;;;5094472;28;20194;-48
2023/03/01 10:43:52;;;;;;;19.30;11.17;;;3.80;99.90;;;;;;5094381;28;20179;-50
2023/03/01 10:46:31;;;;;;;14.93;10.87;;;3.90;99.90;;;;;;5094312;28;20179;-49
2023/03/01 10:49:16;;;;;;;18.40;11.27;;;3.90;99.90;;;;;;5094264;28;20622;-49
2023/03/01 10:51:45;;;;;;;19.17;11.73;;;3.90;99.90;;;;;;5094207;28;20186;-50
2023/03/01 10:54:28;;;;;;;18.97;11.07;;;4.00;99.90;;;;;;5094272;28;20175;-49
2023/03/01 10:57:05;;;;;;;17.87;11.67;;;4.20;99.90;;;;;;5094250;28;20166;-49
2023/03/01 10:59:36;;;;;;;15.57;10.70;;;4.20;99.90;;;;;;5093846;28;20626;-49
2023/03/01 11:12:24;;;;;;;15.27;10.73;;;4.80;99.90;;;;;;1398279;22;20310;-45
2023/03/01 11:14:56;;;;;;;14.17;9.83;;;4.90;99.90;;;;;;5115097;28;20173;-46
2023/03/01 11:17:28;;;;;;;18.37;9.93;;;4.90;99.90;;;;;;5114297;28;20168;-46
2023/03/01 11:20:07;;;;;;;16.77;10.53;;;5.10;99.90;;;;;;5114804;28;20279;-48
2023/03/01 11:22:53;;;;;;;15.17;10.40;;;5.30;99.90;;;;;;5114593;28;20253;-47
2023/03/01 11:25:24;;;;;;;15.57;10.33;;;5.30;99.90;;;;;;5114707;28;20164;-46
2023/03/01 11:27:49;;;;;;;15.13;9.87;;;5.40;99.90;;;;;;5114838;28;20192;-47
2023/03/01 11:30:33;;;;;;;16.80;11.40;;;5.30;99.90;;;;;;5096201;28;20308;-45
2023/03/01 11:33:07;;;;;;;16.53;10.43;;;5.30;99.90;;;;;;5101695;28;20220;-46
2023/03/01 11:35:37;;;;;;;15.40;9.33;;;5.30;99.90;;;;;;5098108;28;20246;-46
2023/03/01 11:38:22;;;;;;;16.33;10.83;;;5.30;99.90;;;;;;5114714;28;20204;-48
2023/03/01 11:40:54;;;;;;;19.23;9.40;;;5.40;99.90;;;;;;5114517;28;20198;-46
2023/03/01 11:43:52;;;;;;;16.33;10.13;;;5.30;99.90;;;;;;5079373;28;20179;-47
2023/03/01 11:46:27;;;;;;;17.63;10.13;;;5.50;99.90;;;;;;5114631;28;20516;-48
2023/03/01 11:49:22;;;;;;;12.23;9.47;;;5.50;99.90;;;;;;5114561;28;20284;-47
2023/03/01 11:52:12;;;;;;;15.27;9.80;;;5.70;99.90;;;;;;5113376;28;20195;-51
2023/03/01 11:55:14;;;;;;;13.00;9.53;;;5.90;99.90;;;;;;5115186;28;20598;-47
2023/03/01 11:58:14;;;;;;;14.87;9.07;;;5.90;99.90;;;;;;5114009;28;20622;-48
2023/03/01 12:01:14;;;;;;;14.57;8.97;;;6.00;99.90;;;;;;5114366;28;20226;-48
2023/03/01 12:03:48;;;;;;;12.93;9.10;;;6.00;99.90;;;;;;5114294;28;20184;-47
2023/03/01 12:06:34;;;;;;;13.20;9.40;;;6.00;99.90;;;;;;5113741;28;20218;-49
2023/03/01 12:09:30;;;;;;;12.77;9.27;;;6.10;99.90;;;;;;5113764;28;20159;-49
2023/03/01 12:12:24;;;;;;;10.23;8.50;;;6.20;99.90;;;;;;5113857;28;20192;-48
2023/03/01 12:15:00;;;;;;;11.53;8.43;;;6.30;99.90;;;;;;5113924;28;20196;-48
2023/03/01 12:17:40;;;;;;;12.10;8.57;;;6.20;99.90;;;;;;5113799;28;20154;-51
2023/03/01 12:20:17;;;;;;;14.40;8.30;;;6.30;99.90;;;;;;5113640;28;20190;-47
2023/03/01 12:23:23;;;;;;;14.40;8.63;;;6.30;99.90;;;;;;5113740;28;20166;-51
2023/03/01 12:26:18;;;;;;;13.30;8.80;;;6.40;99.90;;;;;;5113639;28;20239;-49
2023/03/01 12:29:17;;;;;;;10.87;8.93;;;6.50;99.90;;;;;;5113191;28;20665;-48
2023/03/01 12:32:10;;;;;;;11.13;8.73;;;6.60;99.90;;;;;;5113457;28;20205;-51
2023/03/01 12:34:44;;;;;;;11.57;8.67;;;6.60;99.90;;;;;;5114984;28;20201;-48
2023/03/01 12:37:36;;;;;;;13.53;9.13;;;6.60;99.90;;;;;;5117320;28;20220;-49
2023/03/01 12:40:47;;;;;;;14.33;9.17;;;6.60;99.90;;;;;;5117285;28;20202;-50
2023/03/01 12:43:25;;;;;;;10.97;8.03;;;6.60;99.90;;;;;;5085515;28;20189;-51
2023/03/01 12:46:02;;;;;;;12.57;8.47;;;6.70;99.90;;;;;;5117275;28;20162;-49
2023/03/01 12:48:46;;;;;;;14.50;10.43;;;6.80;99.90;;;;;;5116896;28;20184;-51
2023/03/01 12:51:15;;;;;;;13.90;8.40;;;7.00;99.90;;;;;;5116784;28;20214;-49
2023/03/01 12:53:46;;;;;;;13.30;8.50;;;7.10;99.90;;;;;;5117044;28;20209;-49
2023/03/01 12:56:16;;;;;;;14.13;8.50;;;7.10;99.90;;;;;;5116962;28;20165;-52
2023/03/01 12:58:54;;;;;;;10.50;8.30;;;7.00;99.90;;;;;;5098371;28;20171;-49
2023/03/01 13:01:39;;;;;;;11.70;8.67;;;6.90;99.90;;;;;;5116683;28;20189;-51
2023/03/01 13:04:12;;;;;;;12.03;7.63;;;6.90;99.90;;;;;;5116826;28;20528;-50